createdAt,value
2022-11-02T00:02:17.216Z,64.75
2022-11-02T00:04:44.536Z,64.06
2022-11-02T00:07:11.602Z,63.59
2022-11-02T00:09:38.558Z,63.59
2022-11-02T00:12:06.181Z,63.87
2022-11-02T00:14:33.341Z,63.55
2022-11-02T00:17:00.490Z,63.85
2022-11-02T00:19:27.547Z,64.07
2022-11-02T00:21:55.827Z,63.71
2022-11-02T00:24:22.989Z,63.97
2022-11-02T00:26:50.111Z,63.96
2022-11-02T00:29:17.169Z,63.99
2022-11-02T00:31:44.194Z,64.09
2022-11-02T00:34:12.262Z,64.07
2022-11-02T00:36:39.350Z,64.01
2022-11-02T00:39:06.451Z,64.12
2022-11-02T00:41:33.480Z,63.75
2022-11-02T00:44:00.567Z,63.55
2022-11-02T00:46:27.728Z,63.56
2022-11-02T00:48:55.043Z,63.92
2022-11-02T00:51:22.159Z,64.15
2022-11-02T00:53:49.384Z,64.04
2022-11-02T00:56:16.530Z,64.19
2022-11-02T00:58:43.723Z,63.91
2022-11-02T01:01:12.022Z,63.90
2022-11-02T01:03:39.110Z,64.08
2022-11-02T01:06:14.929Z,63.83
2022-11-02T01:08:42.277Z,64.04
2022-11-02T01:11:21.854Z,64.92
2022-11-02T01:13:51.070Z,64.81
2022-11-02T01:16:19.405Z,64.45
2022-11-02T01:18:46.892Z,64.96
2022-11-02T01:21:14.136Z,64.51
2022-11-02T01:23:41.245Z,64.45
2022-11-02T01:26:10.697Z,64.78
2022-11-02T01:28:38.097Z,64.56
2022-11-02T01:31:06.414Z,65.15
2022-11-02T01:33:34.751Z,64.42
2022-11-02T01:36:05.432Z,64.78
2022-11-02T01:38:33.375Z,64.50
2022-11-02T01:41:00.721Z,64.70
2022-11-02T01:43:33.349Z,63.90
2022-11-02T01:46:11.757Z,64.28
2022-11-02T01:48:44.380Z,64.26
2022-11-02T01:51:15.886Z,65.27
2022-11-02T01:53:46.570Z,64.74
2022-11-02T01:56:18.167Z,65.43
2022-11-02T01:58:49.462Z,64.96
2022-11-02T02:01:16.596Z,64.38
2022-11-02T02:03:44.153Z,64.54
2022-11-02T02:06:14.299Z,65.29
2022-11-02T02:08:46.079Z,64.82
2022-11-02T02:11:29.108Z,64.30
2022-11-02T02:14:12.311Z,64.58
2022-11-02T02:17:00.866Z,63.84
2022-11-02T02:19:52.350Z,64.85
2022-11-02T02:22:20.903Z,64.47
2022-11-02T02:25:22.263Z,65.66
2022-11-02T02:28:02.137Z,65.47
2022-11-02T02:30:33.335Z,65.08
2022-11-02T02:33:30.549Z,65.28
2022-11-02T02:36:20.143Z,65.01
2022-11-02T02:38:55.281Z,64.89
2022-11-02T02:41:34.478Z,65.20
2022-11-02T02:44:06.068Z,65.37
2022-11-02T02:46:55.897Z,65.75
2022-11-02T02:49:33.808Z,65.50
2022-11-02T02:52:03.599Z,65.04
2022-11-02T02:54:36.497Z,65.48
2022-11-02T02:57:11.189Z,66.10
2022-11-02T02:59:42.625Z,64.98
2022-11-02T03:02:20.776Z,65.27
2022-11-02T03:04:48.176Z,64.66
2022-11-02T03:07:29.592Z,65.38
2022-11-02T03:10:28.013Z,65.14
2022-11-02T03:13:04.213Z,64.85
2022-11-02T03:15:40.590Z,64.93
2022-11-02T03:18:26.239Z,65.42
2022-11-02T03:21:08.472Z,65.05
2022-11-02T03:23:49.306Z,65.11
2022-11-02T03:26:41.758Z,65.28
2022-11-02T03:29:30.865Z,64.88
2022-11-02T03:32:06.128Z,65.09
2022-11-02T03:34:49.345Z,65.45
2022-11-02T03:37:40.053Z,65.65
2022-11-02T03:40:14.806Z,65.32
2022-11-02T03:42:44.389Z,65.52
2022-11-02T03:45:22.875Z,65.70
2022-11-02T03:47:58.850Z,65.57
2022-11-02T03:50:27.763Z,65.58
2022-11-02T03:53:01.350Z,65.46
2022-11-02T03:55:33.994Z,65.17
2022-11-02T03:58:01.481Z,64.94
2022-11-02T04:00:37.236Z,65.36
2022-11-02T04:03:12.295Z,64.77
2022-11-02T04:05:43.760Z,65.56
2022-11-02T04:08:37.692Z,65.75
2022-11-02T04:11:27.255Z,65.40
2022-11-02T04:14:17.555Z,65.88
2022-11-02T04:16:45.840Z,65.35
2022-11-02T04:19:28.879Z,65.40
2022-11-02T04:22:20.892Z,65.66
2022-11-02T04:25:10.619Z,66.22
2022-11-02T04:27:39.701Z,66.21
2022-11-02T04:30:09.786Z,66.48
2022-11-02T04:32:59.698Z,66.67
2022-11-02T04:35:31.927Z,66.80
2022-11-02T04:38:18.869Z,66.53
2022-11-02T04:40:46.791Z,67.05
2022-11-02T04:43:14.405Z,66.71
2022-11-02T04:45:41.934Z,66.17
2022-11-02T04:48:09.940Z,66.36
2022-11-02T04:50:38.381Z,66.53
2022-11-02T04:53:07.395Z,66.26
2022-11-02T04:55:35.534Z,65.88
2022-11-02T04:58:03.389Z,66.46
2022-11-02T05:00:31.553Z,66.54
2022-11-02T05:02:58.721Z,67.03
2022-11-02T05:05:26.667Z,66.76
2022-11-02T05:07:57.445Z,66.50
2022-11-02T05:10:24.791Z,66.71
2022-11-02T05:12:59.805Z,67.40
2022-11-02T05:15:31.533Z,67.68
2022-11-02T05:18:00.571Z,66.96
2022-11-02T05:20:30.152Z,67.22
2022-11-02T05:22:58.071Z,67.59
2022-11-02T05:25:25.353Z,66.86
2022-11-02T05:27:52.862Z,66.95
2022-11-02T05:30:20.327Z,67.11
2022-11-02T05:32:48.160Z,67.43
2022-11-02T05:35:15.416Z,67.12
2022-11-02T05:37:43.693Z,67.26
2022-11-02T05:40:12.430Z,67.06
2022-11-02T05:42:40.223Z,67.38
2022-11-02T05:45:07.621Z,67.10
2022-11-02T05:47:34.916Z,67.27
2022-11-02T05:50:02.451Z,67.60
2022-11-02T05:52:30.677Z,67.52
2022-11-02T05:54:57.933Z,68.11
2022-11-02T05:57:24.978Z,67.27
2022-11-02T05:59:52.062Z,67.09
2022-11-02T06:02:20.875Z,67.43
2022-11-02T06:04:50.416Z,66.88
2022-11-02T06:07:17.454Z,67.49
2022-11-02T06:09:44.586Z,66.49
2022-11-02T06:12:11.601Z,66.61
2022-11-02T06:14:38.588Z,66.61
2022-11-02T06:17:05.702Z,66.80
2022-11-02T06:19:32.651Z,66.39
2022-11-02T06:21:59.584Z,66.81
2022-11-02T06:24:26.786Z,66.90
2022-11-02T06:26:53.822Z,66.22
2022-11-02T06:29:21.248Z,65.92
2022-11-02T06:31:48.296Z,66.56
2022-11-02T06:34:15.392Z,66.14
2022-11-02T06:36:42.327Z,66.04
2022-11-02T06:39:09.385Z,65.93
2022-11-02T06:41:36.479Z,65.76
2022-11-02T06:44:03.619Z,65.46
2022-11-02T06:46:30.631Z,65.07
2022-11-02T06:48:59.016Z,65.26
2022-11-02T06:51:26.182Z,65.49
2022-11-02T06:53:53.127Z,65.34
2022-11-02T06:56:20.082Z,65.23
2022-11-02T06:58:47.080Z,65.85
2022-11-02T07:01:15.648Z,64.96
2022-11-02T07:03:42.926Z,65.27
2022-11-02T07:06:14.204Z,65.09
2022-11-02T07:08:42.583Z,65.29
2022-11-02T07:11:14.347Z,65.24
2022-11-02T07:13:41.460Z,65.18
2022-11-02T07:16:08.637Z,65.39
2022-11-02T07:18:36.063Z,65.27
2022-11-02T07:21:03.187Z,65.10
2022-11-02T07:23:30.598Z,65.43
2022-11-02T07:25:57.574Z,65.64
2022-11-02T07:28:24.463Z,65.12
2022-11-02T07:30:54.205Z,64.92
2022-11-02T07:33:21.762Z,65.15
2022-11-02T07:35:48.886Z,65.44
2022-11-02T07:38:15.835Z,64.98
2022-11-02T07:40:42.925Z,65.24
2022-11-02T07:43:10.175Z,65.03
2022-11-02T07:45:51.719Z,64.56
2022-11-02T07:48:18.955Z,64.85
2022-11-02T07:50:46.079Z,64.97
2022-11-02T07:53:13.098Z,65.23
2022-11-02T07:55:40.716Z,65.15
2022-11-02T07:58:11.157Z,65.34
2022-11-02T08:00:40.957Z,65.63
2022-11-02T08:03:09.920Z,64.26
2022-11-02T08:05:41.884Z,64.51
2022-11-02T08:08:20.372Z,64.58
2022-11-02T08:10:49.673Z,64.42
2022-11-02T08:13:19.317Z,65.06
2022-11-02T08:15:53.166Z,64.29
2022-11-02T08:18:23.416Z,64.54
2022-11-02T08:20:51.127Z,64.25
2022-11-02T08:23:21.039Z,64.15
2022-11-02T08:25:50.440Z,63.96
2022-11-02T08:28:26.272Z,63.94
2022-11-02T08:30:53.348Z,63.86
2022-11-02T08:33:21.413Z,64.37
2022-11-02T08:35:49.127Z,64.05
2022-11-02T08:38:16.762Z,63.95
2022-11-02T08:40:45.027Z,64.04
2022-11-02T08:43:14.692Z,64.18
2022-11-02T08:48:32.212Z,63.80
2022-11-02T08:50:59.268Z,64.32
2022-11-02T08:53:26.430Z,63.74
2022-11-02T08:55:53.347Z,63.43
2022-11-02T08:58:20.279Z,63.87
2022-11-02T09:00:47.264Z,63.80
2022-11-02T09:03:17.173Z,63.46
2022-11-02T09:05:47.393Z,63.45
2022-11-02T09:08:17.362Z,63.55
2022-11-02T09:10:45.685Z,63.33
2022-11-02T09:13:14.579Z,63.34
2022-11-02T09:15:42.044Z,63.41
2022-11-02T09:18:09.636Z,63.36
2022-11-02T09:20:37.655Z,62.90
2022-11-02T09:23:04.762Z,63.54
2022-11-02T09:25:31.881Z,62.17
2022-11-02T09:27:59.423Z,62.42
2022-11-02T09:30:28.799Z,62.35
2022-11-02T09:32:56.394Z,63.27
2022-11-02T09:35:24.497Z,63.25
2022-11-02T09:37:51.618Z,63.03
2022-11-02T09:40:26.482Z,63.51
2022-11-02T09:43:13.420Z,62.97
2022-11-02T09:45:53.701Z,63.37
2022-11-02T09:48:40.963Z,62.98
2022-11-02T09:51:16.531Z,62.45
2022-11-02T09:54:06.577Z,61.34
2022-11-02T09:56:35.511Z,61.92
2022-11-02T09:59:11.921Z,62.60
2022-11-02T10:02:10.807Z,62.16
2022-11-02T10:05:18.958Z,60.96
2022-11-02T10:07:58.254Z,61.44
2022-11-02T10:10:40.176Z,60.68
2022-11-02T10:13:34.467Z,61.05
2022-11-02T10:16:20.147Z,60.52
2022-11-02T10:18:50.635Z,60.63
2022-11-02T10:21:28.377Z,60.76
2022-11-02T10:23:58.182Z,60.71
2022-11-02T10:26:43.712Z,59.97
2022-11-02T10:29:20.513Z,59.98
2022-11-02T10:31:48.784Z,60.30
2022-11-02T10:34:29.139Z,60.25
2022-11-02T10:37:19.108Z,60.14
2022-11-02T10:39:58.510Z,60.10
2022-11-02T10:42:44.940Z,60.21
2022-11-02T10:45:11.848Z,59.96
2022-11-02T10:48:07.518Z,58.58
2022-11-02T10:51:06.506Z,58.59
2022-11-02T10:53:41.798Z,58.15
2022-11-02T10:56:20.527Z,59.26
2022-11-02T10:58:56.964Z,58.81
2022-11-02T11:01:24.337Z,58.19
2022-11-02T11:04:20.291Z,58.49
2022-11-02T11:06:47.370Z,59.05
2022-11-02T11:09:23.771Z,57.76
2022-11-02T11:12:04.461Z,58.37
2022-11-02T11:20:40.061Z,58.19
2022-11-02T11:23:27.589Z,57.85
2022-11-02T11:26:06.769Z,58.51
2022-11-02T11:28:55.410Z,57.90
2022-11-02T11:31:23.277Z,57.81
2022-11-02T11:33:58.603Z,57.26
2022-11-02T11:36:34.573Z,57.22
2022-11-02T11:39:04.002Z,57.10
2022-11-02T11:41:33.378Z,57.96
2022-11-02T11:44:02.677Z,57.03
2022-11-02T11:46:41.335Z,56.89
2022-11-02T11:52:24.484Z,57.55
2022-11-02T11:55:00.207Z,57.56
2022-11-02T11:57:31.878Z,57.18
2022-11-02T12:00:02.026Z,57.60
2022-11-02T12:02:38.000Z,58.13
2022-11-02T12:05:13.433Z,57.92
2022-11-02T12:08:10.081Z,57.99
2022-11-02T12:11:08.766Z,58.45
2022-11-02T12:13:44.856Z,58.29
2022-11-02T12:16:44.841Z,57.82
2022-11-02T12:19:34.185Z,58.56
2022-11-02T12:22:21.631Z,57.45
2022-11-02T12:24:51.485Z,58.39
2022-11-02T12:27:36.777Z,57.98
2022-11-02T12:30:20.607Z,58.45
2022-11-02T12:33:14.804Z,57.66
2022-11-02T12:35:58.337Z,57.95
2022-11-02T12:38:52.915Z,57.86
2022-11-02T12:41:43.111Z,58.50
2022-11-02T12:45:05.042Z,58.25
2022-11-02T12:47:51.686Z,57.86
2022-11-02T12:50:43.094Z,57.87
2022-11-02T12:53:37.150Z,58.12
2022-11-02T12:56:09.091Z,58.71
2022-11-02T12:58:39.977Z,58.42
2022-11-02T13:01:25.080Z,58.62
2022-11-02T13:04:17.549Z,59.34
2022-11-02T13:06:48.876Z,59.50
2022-11-02T13:09:28.652Z,59.82
2022-11-02T13:12:07.087Z,59.48
2022-11-02T13:15:10.895Z,59.19
2022-11-02T13:17:52.402Z,58.83
2022-11-02T13:20:36.125Z,59.64
2022-11-02T13:23:26.063Z,59.20
2022-11-02T13:25:58.809Z,59.76
2022-11-02T13:28:38.279Z,60.06
2022-11-02T13:31:13.007Z,59.47
2022-11-02T13:33:47.189Z,59.86
2022-11-02T13:36:15.408Z,59.54
2022-11-02T13:39:00.796Z,60.24
2022-11-02T13:42:15.342Z,60.18
2022-11-02T13:45:15.227Z,60.15
2022-11-02T13:48:18.343Z,60.28
2022-11-02T13:50:58.367Z,60.05
2022-11-02T13:53:37.754Z,59.70
2022-11-02T13:56:21.104Z,60.18
2022-11-02T13:58:56.382Z,60.39
2022-11-02T14:01:24.739Z,60.63
2022-11-02T14:04:04.142Z,60.85
2022-11-02T14:06:34.665Z,60.20
2022-11-02T14:09:05.532Z,60.75
2022-11-02T14:11:56.578Z,60.79
2022-11-02T14:14:25.391Z,60.36
2022-11-02T14:16:52.497Z,60.63
2022-11-02T14:19:24.702Z,61.58
2022-11-02T14:21:52.402Z,60.64
2022-11-02T14:24:34.455Z,60.18
2022-11-02T14:27:05.273Z,60.88
2022-11-02T14:29:59.226Z,61.24
2022-11-02T14:33:11.048Z,60.88
2022-11-02T14:35:44.387Z,61.02
2022-11-02T14:38:26.270Z,60.96
2022-11-02T14:40:53.436Z,60.79
2022-11-02T14:43:30.406Z,60.94
2022-11-02T14:46:18.675Z,60.72
2022-11-02T14:48:51.953Z,61.10
2022-11-02T14:51:27.169Z,61.05
2022-11-02T14:54:01.504Z,60.84
2022-11-02T14:56:52.919Z,60.84
2022-11-02T14:59:35.452Z,60.36
2022-11-02T15:02:09.931Z,60.73
2022-11-02T15:04:37.387Z,60.73
2022-11-02T15:07:06.701Z,60.67
2022-11-02T15:10:17.962Z,60.97
2022-11-02T15:12:49.450Z,60.67
2022-11-02T15:15:36.463Z,61.09
2022-11-02T15:18:28.185Z,60.93
2022-11-02T15:21:10.794Z,60.71
2022-11-02T15:24:00.126Z,61.06
2022-11-02T15:26:45.884Z,61.14
2022-11-02T15:29:51.605Z,61.04
2022-11-02T15:32:24.253Z,60.74
2022-11-02T15:34:55.816Z,60.90
2022-11-02T15:37:50.306Z,61.15
2022-11-02T15:40:27.019Z,61.17
2022-11-02T15:43:22.971Z,61.53
2022-11-02T15:46:24.753Z,61.21
2022-11-02T15:49:30.703Z,61.32
2022-11-02T15:53:01.758Z,61.21
2022-11-02T15:55:47.608Z,61.34
2022-11-02T15:58:24.537Z,60.99
2022-11-02T16:01:12.192Z,60.76
2022-11-02T16:03:44.905Z,60.93
2022-11-02T16:06:12.300Z,60.94
2022-11-02T16:08:39.508Z,61.28
2022-11-02T16:11:17.618Z,61.03
2022-11-02T16:13:55.943Z,61.05
2022-11-02T16:16:35.865Z,61.54
2022-11-02T16:19:03.060Z,61.02
2022-11-02T16:21:30.572Z,60.56
2022-11-02T16:23:59.513Z,60.96
2022-11-02T16:26:29.908Z,61.15
2022-11-02T16:29:00.145Z,61.17
2022-11-02T16:31:32.142Z,61.62
2022-11-02T16:34:17.261Z,61.26
2022-11-02T16:36:44.525Z,61.54
2022-11-02T16:39:19.344Z,61.44
2022-11-02T16:41:52.576Z,61.17
2022-11-02T16:44:30.804Z,61.51
2022-11-02T16:47:17.489Z,62.00
2022-11-02T16:49:51.059Z,61.72
2022-11-02T16:52:21.821Z,61.55
2022-11-02T16:54:48.934Z,61.87
2022-11-02T16:57:22.594Z,61.52
2022-11-02T16:59:50.387Z,61.88
2022-11-02T17:02:18.932Z,62.07
2022-11-02T17:04:48.750Z,62.32
2022-11-02T17:07:28.152Z,62.32
2022-11-02T17:09:57.967Z,62.03
2022-11-02T17:12:40.084Z,62.21
2022-11-02T17:15:17.879Z,62.10
2022-11-02T17:17:45.550Z,62.01
2022-11-02T17:20:15.290Z,61.71
2022-11-02T17:23:01.836Z,61.95
2022-11-02T17:25:33.039Z,61.76
2022-11-02T17:28:02.931Z,61.89
2022-11-02T17:30:30.385Z,61.53
2022-11-02T17:32:58.418Z,61.70
2022-11-02T17:35:27.404Z,62.04
2022-11-02T17:37:54.827Z,62.00
2022-11-02T17:40:22.327Z,61.96
2022-11-02T17:42:59.338Z,61.88
2022-11-02T17:45:28.862Z,62.08
2022-11-02T17:47:58.189Z,61.99
2022-11-02T17:50:27.079Z,62.13
2022-11-02T17:52:54.910Z,62.15
2022-11-02T17:55:24.508Z,62.22
2022-11-02T17:57:51.709Z,62.09
2022-11-02T18:00:19.369Z,62.39
2022-11-02T18:02:57.595Z,62.84
2022-11-02T18:05:27.692Z,62.63
2022-11-02T18:07:57.869Z,62.37
2022-11-02T18:10:29.439Z,62.56
2022-11-02T18:12:57.067Z,62.51
2022-11-02T18:15:29.936Z,63.12
2022-11-02T18:17:57.323Z,62.98
2022-11-02T18:20:26.645Z,62.64
2022-11-02T18:22:57.217Z,63.18
2022-11-02T18:25:30.481Z,63.24
2022-11-02T18:27:59.106Z,63.50
2022-11-02T18:30:27.701Z,63.16
2022-11-02T18:32:56.592Z,63.26
2022-11-02T18:35:24.783Z,63.31
2022-11-02T18:37:52.561Z,63.38
2022-11-02T18:40:20.455Z,63.13
2022-11-02T18:42:47.717Z,63.11
2022-11-02T18:45:16.154Z,63.32
2022-11-02T18:47:43.321Z,63.17
2022-11-02T18:50:12.488Z,63.79
2022-11-02T18:52:40.484Z,63.43
2022-11-02T18:55:07.860Z,63.35
2022-11-02T18:57:35.011Z,63.68
2022-11-02T19:00:03.030Z,63.08
2022-11-02T19:02:33.476Z,63.20
2022-11-02T19:05:00.541Z,63.60
2022-11-02T19:07:47.784Z,63.55
2022-11-02T19:10:14.766Z,63.02
2022-11-02T19:12:41.738Z,62.94
2022-11-02T19:15:09.220Z,63.10
2022-11-02T19:17:36.278Z,62.91
2022-11-02T19:20:03.469Z,63.07
2022-11-02T19:22:30.462Z,63.01
2022-11-02T19:24:57.581Z,63.45
2022-11-02T19:27:25.557Z,63.01
2022-11-02T19:29:53.172Z,63.15
2022-11-02T19:32:21.182Z,62.74
2022-11-02T19:34:48.371Z,63.03
2022-11-02T19:37:15.676Z,63.33
2022-11-02T19:39:42.852Z,63.59
2022-11-02T19:42:09.981Z,63.35
2022-11-02T19:44:42.262Z,63.72
2022-11-02T19:47:10.678Z,63.82
2022-11-02T19:49:37.717Z,63.65
2022-11-02T19:52:04.829Z,63.69
2022-11-02T19:54:31.968Z,63.64
2022-11-02T19:56:58.997Z,63.77
2022-11-02T19:59:26.178Z,63.58
2022-11-02T20:01:53.366Z,63.24
2022-11-02T20:04:20.577Z,63.97
2022-11-02T20:06:47.757Z,64.06
2022-11-02T20:09:17.044Z,63.83
2022-11-02T20:11:45.439Z,64.16
2022-11-02T20:14:14.890Z,64.28
2022-11-02T20:16:42.394Z,63.71
2022-11-02T20:19:10.339Z,64.03
2022-11-02T20:21:42.661Z,64.29
2022-11-02T20:24:11.152Z,64.25
2022-11-02T20:26:41.457Z,64.27
2022-11-02T20:29:12.182Z,64.06
2022-11-02T20:31:42.693Z,64.23
2022-11-02T20:34:13.163Z,64.17
2022-11-02T20:36:40.411Z,64.73
2022-11-02T20:39:08.212Z,64.54
2022-11-02T20:41:35.332Z,64.47
2022-11-02T20:44:02.465Z,64.69
2022-11-02T20:46:41.006Z,64.19
2022-11-02T20:49:20.421Z,64.27
2022-11-02T20:51:49.527Z,64.36
2022-11-02T20:54:18.461Z,63.80
2022-11-02T20:56:45.565Z,64.01
2022-11-02T20:59:12.623Z,64.01
2022-11-02T21:01:39.980Z,64.07
2022-11-02T21:04:07.656Z,64.17
2022-11-02T21:06:34.704Z,64.27
2022-11-02T21:09:09.010Z,63.82
2022-11-02T21:12:08.079Z,64.05
2022-11-02T21:14:35.207Z,63.96
2022-11-02T21:17:03.182Z,63.91
2022-11-02T21:19:30.170Z,63.57
2022-11-02T21:21:59.903Z,63.92
2022-11-02T21:24:28.871Z,63.93
2022-11-02T21:26:56.334Z,63.87
2022-11-02T21:29:24.011Z,63.94
2022-11-02T21:31:51.221Z,63.65
2022-11-02T21:34:18.441Z,64.07
2022-11-02T21:36:46.933Z,63.58
2022-11-02T21:39:14.013Z,64.02
2022-11-02T21:41:40.995Z,64.04
2022-11-02T21:44:09.090Z,63.41
2022-11-02T21:46:36.104Z,63.24
2022-11-02T21:49:04.007Z,63.80
2022-11-02T21:51:31.145Z,63.21
2022-11-02T21:53:58.242Z,63.80
2022-11-02T21:56:27.322Z,63.82
2022-11-02T21:58:55.612Z,64.22
2022-11-02T22:01:43.634Z,63.74
2022-11-02T22:04:33.989Z,63.77
2022-11-02T22:08:09.850Z,63.89
2022-11-02T22:11:00.083Z,63.86
2022-11-02T22:13:32.888Z,63.45
2022-11-02T22:16:20.562Z,63.97
2022-11-02T22:18:48.407Z,63.96
2022-11-02T22:21:17.149Z,63.71
2022-11-02T22:24:52.546Z,64.29
2022-11-02T22:27:19.683Z,64.67
2022-11-02T22:30:51.382Z,63.85
2022-11-02T22:33:18.401Z,63.90
2022-11-02T22:35:45.288Z,64.36
2022-11-02T22:38:30.653Z,64.35
2022-11-02T22:41:01.717Z,64.16
2022-11-02T22:43:29.034Z,63.68
2022-11-02T22:46:03.757Z,64.17
2022-11-02T22:48:31.157Z,63.62
2022-11-02T22:50:58.208Z,63.89
2022-11-02T22:53:27.872Z,63.54
2022-11-02T22:55:59.196Z,63.72
2022-11-02T22:58:27.570Z,63.71
2022-11-02T23:00:55.026Z,63.47
2022-11-02T23:03:22.337Z,63.88
2022-11-02T23:05:49.463Z,64.19
2022-11-02T23:08:16.949Z,64.36
2022-11-02T23:11:03.766Z,64.20
2022-11-02T23:13:30.973Z,64.40
2022-11-02T23:16:22.205Z,64.80
2022-11-02T23:19:31.866Z,64.71
2022-11-02T23:22:29.687Z,64.35
2022-11-02T23:25:17.360Z,64.31
2022-11-02T23:28:13.589Z,64.21
2022-11-02T23:30:59.129Z,64.20
2022-11-02T23:33:31.243Z,63.88
2022-11-02T23:36:11.099Z,64.07
2022-11-02T23:39:04.718Z,64.29
2022-11-02T23:41:33.821Z,64.12
2022-11-02T23:44:14.162Z,64.03
2022-11-02T23:46:42.948Z,64.15
2022-11-02T23:49:50.478Z,63.91
2022-11-02T23:52:56.660Z,64.06
2022-11-02T23:55:42.302Z,64.27
2022-11-02T23:58:09.333Z,64.33
